sensor_id;sensor_type;location;lat;lon;timestamp;P1;durP1;ratioP1;P2;durP2;ratioP2
81508;SDS011;70930;52.412;13.554;2023-08-01T00:02:21;7.35;;;3.30;;
81508;SDS011;70930;52.412;13.554;2023-08-01T00:05:06;7.60;;;3.85;;
81508;SDS011;70930;52.412;13.554;2023-08-01T00:07:52;5.30;;;3.50;;
81508;SDS011;70930;52.412;13.554;2023-08-01T00:10:38;10.40;;;4.07;;
81508;SDS011;70930;52.412;13.554;2023-08-01T00:13:24;7.35;;;3.40;;
81508;SDS011;70930;52.412;13.554;2023-08-01T00:16:09;7.75;;;3.00;;
81508;SDS011;70930;52.412;13.554;2023-08-01T00:18:55;7.18;;;3.50;;
81508;SDS011;70930;52.412;13.554;2023-08-01T00:21:40;7.75;;;2.95;;
81508;SDS011;70930;52.412;13.554;2023-08-01T00:24:26;3.70;;;2.85;;
81508;SDS011;70930;52.412;13.554;2023-08-01T00:27:11;6.03;;;3.00;;
81508;SDS011;70930;52.412;13.554;2023-08-01T00:29:56;4.63;;;2.88;;
81508;SDS011;70930;52.412;13.554;2023-08-01T00:32:42;5.53;;;2.70;;
81508;SDS011;70930;52.412;13.554;2023-08-01T00:46:33;5.65;;;3.22;;
81508;SDS011;70930;52.412;13.554;2023-08-01T00:49:18;4.63;;;2.85;;
81508;SDS011;70930;52.412;13.554;2023-08-01T00:52:04;5.68;;;3.22;;
81508;SDS011;70930;52.412;13.554;2023-08-01T00:54:50;5.25;;;2.70;;
81508;SDS011;70930;52.412;13.554;2023-08-01T00:57:37;6.18;;;3.65;;
81508;SDS011;70930;52.412;13.554;2023-08-01T01:00:22;6.97;;;3.55;;
81508;SDS011;70930;52.412;13.554;2023-08-01T01:03:08;6.72;;;3.25;;
81508;SDS011;70930;52.412;13.554;2023-08-01T01:05:56;8.00;;;2.95;;
81508;SDS011;70930;52.412;13.554;2023-08-01T01:08:47;6.18;;;3.00;;
81508;SDS011;70930;52.412;13.554;2023-08-01T01:11:32;6.13;;;3.08;;
81508;SDS011;70930;52.412;13.554;2023-08-01T01:14:18;6.15;;;3.90;;
81508;SDS011;70930;52.412;13.554;2023-08-01T01:17:03;10.30;;;3.08;;
81508;SDS011;70930;52.412;13.554;2023-08-01T01:19:49;6.53;;;3.20;;
81508;SDS011;70930;52.412;13.554;2023-08-01T01:22:35;6.72;;;3.10;;
81508;SDS011;70930;52.412;13.554;2023-08-01T01:25:22;5.43;;;3.30;;
81508;SDS011;70930;52.412;13.554;2023-08-01T01:30:55;7.72;;;3.67;;
81508;SDS011;70930;52.412;13.554;2023-08-01T01:33:41;6.90;;;3.30;;
81508;SDS011;70930;52.412;13.554;2023-08-01T01:36:26;5.75;;;3.65;;
81508;SDS011;70930;52.412;13.554;2023-08-01T01:39:12;4.97;;;3.42;;
81508;SDS011;70930;52.412;13.554;2023-08-01T01:41:57;6.40;;;3.72;;
81508;SDS011;70930;52.412;13.554;2023-08-01T01:44:42;7.18;;;3.75;;
81508;SDS011;70930;52.412;13.554;2023-08-01T01:47:28;6.90;;;3.55;;
81508;SDS011;70930;52.412;13.554;2023-08-01T01:50:13;7.88;;;4.03;;
81508;SDS011;70930;52.412;13.554;2023-08-01T01:52:59;5.95;;;4.70;;
81508;SDS011;70930;52.412;13.554;2023-08-01T01:55:44;6.68;;;4.13;;
81508;SDS011;70930;52.412;13.554;2023-08-01T01:58:29;9.07;;;4.80;;
81508;SDS011;70930;52.412;13.554;2023-08-01T02:01:15;7.03;;;4.20;;
81508;SDS011;70930;52.412;13.554;2023-08-01T02:04:00;5.40;;;4.45;;
81508;SDS011;70930;52.412;13.554;2023-08-01T02:06:46;7.95;;;4.13;;
81508;SDS011;70930;52.412;13.554;2023-08-01T02:09:31;9.38;;;4.50;;
81508;SDS011;70930;52.412;13.554;2023-08-01T02:12:16;7.95;;;4.53;;
81508;SDS011;70930;52.412;13.554;2023-08-01T02:15:02;6.30;;;4.47;;
81508;SDS011;70930;52.412;13.554;2023-08-01T02:17:47;7.00;;;4.30;;
81508;SDS011;70930;52.412;13.554;2023-08-01T02:20:33;10.95;;;5.55;;
81508;SDS011;70930;52.412;13.554;2023-08-01T02:23:18;7.93;;;4.30;;
81508;SDS011;70930;52.412;13.554;2023-08-01T02:26:04;6.55;;;4.05;;
81508;SDS011;70930;52.412;13.554;2023-08-01T02:28:49;10.57;;;4.53;;
81508;SDS011;70930;52.412;13.554;2023-08-01T02:31:35;5.93;;;3.97;;
81508;SDS011;70930;52.412;13.554;2023-08-01T02:34:21;8.20;;;4.22;;
81508;SDS011;70930;52.412;13.554;2023-08-01T02:37:06;9.50;;;4.57;;
81508;SDS011;70930;52.412;13.554;2023-08-01T02:39:51;10.00;;;4.30;;
81508;SDS011;70930;52.412;13.554;2023-08-01T02:42:37;8.02;;;4.70;;
81508;SDS011;70930;52.412;13.554;2023-08-01T02:45:22;8.93;;;4.63;;
81508;SDS011;70930;52.412;13.554;2023-08-01T02:48:07;6.03;;;4.00;;
81508;SDS011;70930;52.412;13.554;2023-08-01T02:50:53;10.07;;;4.78;;
81508;SDS011;70930;52.412;13.554;2023-08-01T02:53:38;7.40;;;3.80;;
81508;SDS011;70930;52.412;13.554;2023-08-01T02:56:26;6.45;;;4.28;;
81508;SDS011;70930;52.412;13.554;2023-08-01T02:59:12;6.07;;;4.30;;
81508;SDS011;70930;52.412;13.554;2023-08-01T03:01:58;10.60;;;5.03;;
81508;SDS011;70930;52.412;13.554;2023-08-01T03:04:44;6.53;;;3.47;;
81508;SDS011;70930;52.412;13.554;2023-08-01T03:07:29;7.47;;;4.40;;
81508;SDS011;70930;52.412;13.554;2023-08-01T03:10:15;6.15;;;4.20;;
81508;SDS011;70930;52.412;13.554;2023-08-01T03:13:00;5.78;;;3.75;;
81508;SDS011;70930;52.412;13.554;2023-08-01T03:15:46;7.55;;;4.28;;
81508;SDS011;70930;52.412;13.554;2023-08-01T03:18:31;9.15;;;4.10;;
81508;SDS011;70930;52.412;13.554;2023-08-01T03:21:16;5.88;;;4.05;;
81508;SDS011;70930;52.412;13.554;2023-08-01T03:24:02;6.95;;;3.95;;
81508;SDS011;70930;52.412;13.554;2023-08-01T03:26:48;5.90;;;4.13;;
81508;SDS011;70930;52.412;13.554;2023-08-01T03:29:34;5.68;;;3.80;;
81508;SDS011;70930;52.412;13.554;2023-08-01T03:32:19;5.75;;;3.83;;
81508;SDS011;70930;52.412;13.554;2023-08-01T03:35:05;5.22;;;3.58;;
81508;SDS011;70930;52.412;13.554;2023-08-01T03:37:51;6.07;;;4.10;;
81508;SDS011;70930;52.412;13.554;2023-08-01T03:40:36;5.60;;;3.58;;
81508;SDS011;70930;52.412;13.554;2023-08-01T03:43:22;7.20;;;4.10;;
81508;SDS011;70930;52.412;13.554;2023-08-01T03:46:08;7.97;;;3.58;;
81508;SDS011;70930;52.412;13.554;2023-08-01T03:48:54;5.50;;;3.45;;
81508;SDS011;70930;52.412;13.554;2023-08-01T03:51:39;4.75;;;3.55;;
81508;SDS011;70930;52.412;13.554;2023-08-01T03:54:25;7.80;;;3.90;;
81508;SDS011;70930;52.412;13.554;2023-08-01T03:57:10;8.07;;;4.18;;
81508;SDS011;70930;52.412;13.554;2023-08-01T03:59:55;7.50;;;3.90;;
81508;SDS011;70930;52.412;13.554;2023-08-01T04:02:41;6.82;;;3.65;;
81508;SDS011;70930;52.412;13.554;2023-08-01T04:05:27;6.15;;;4.00;;
81508;SDS011;70930;52.412;13.554;2023-08-01T04:08:13;5.68;;;3.72;;
81508;SDS011;70930;52.412;13.554;2023-08-01T04:10:59;7.63;;;3.60;;
81508;SDS011;70930;52.412;13.554;2023-08-01T04:13:44;7.28;;;4.03;;
81508;SDS011;70930;52.412;13.554;2023-08-01T04:16:29;5.00;;;3.13;;
81508;SDS011;70930;52.412;13.554;2023-08-01T04:19:15;6.28;;;3.92;;
81508;SDS011;70930;52.412;13.554;2023-08-01T04:22:00;7.70;;;3.72;;
81508;SDS011;70930;52.412;13.554;2023-08-01T04:24:46;8.02;;;3.55;;
81508;SDS011;70930;52.412;13.554;2023-08-01T04:27:31;8.30;;;3.92;;
81508;SDS011;70930;52.412;13.554;2023-08-01T04:30:16;6.45;;;3.42;;
81508;SDS011;70930;52.412;13.554;2023-08-01T04:33:02;4.75;;;3.08;;
81508;SDS011;70930;52.412;13.554;2023-08-01T04:35:47;5.68;;;3.25;;
81508;SDS011;70930;52.412;13.554;2023-08-01T04:38:34;7.00;;;3.85;;
81508;SDS011;70930;52.412;13.554;2023-08-01T04:41:19;6.28;;;3.47;;
81508;SDS011;70930;52.412;13.554;2023-08-01T04:44:05;7.00;;;3.53;;
81508;SDS011;70930;52.412;13.554;2023-08-01T04:46:51;5.93;;;3.38;;
81508;SDS011;70930;52.412;13.554;2023-08-01T04:49:36;9.18;;;3.80;;
81508;SDS011;70930;52.412;13.554;2023-08-01T04:52:22;5.95;;;3.10;;
81508;SDS011;70930;52.412;13.554;2023-08-01T04:55:07;5.60;;;3.55;;
81508;SDS011;70930;52.412;13.554;2023-08-01T04:57:52;4.90;;;3.03;;
81508;SDS011;70930;52.412;13.554;2023-08-01T05:00:38;6.28;;;3.22;;
81508;SDS011;70930;52.412;13.554;2023-08-01T05:03:26;5.63;;;2.97;;
81508;SDS011;70930;52.412;13.554;2023-08-01T05:06:11;5.60;;;2.97;;
81508;SDS011;70930;52.412;13.554;2023-08-01T05:08:57;5.90;;;3.45;;
81508;SDS011;70930;52.412;13.554;2023-08-01T05:11:42;6.13;;;3.38;;
81508;SDS011;70930;52.412;13.554;2023-08-01T05:14:27;4.10;;;3.15;;
81508;SDS011;70930;52.412;13.554;2023-08-01T05:17:13;5.93;;;3.85;;
81508;SDS011;70930;52.412;13.554;2023-08-01T05:19:58;6.97;;;4.53;;
81508;SDS011;70930;52.412;13.554;2023-08-01T05:22:44;6.20;;;3.45;;
81508;SDS011;70930;52.412;13.554;2023-08-01T05:25:29;4.85;;;3.47;;
81508;SDS011;70930;52.412;13.554;2023-08-01T05:28:15;6.90;;;4.05;;
81508;SDS011;70930;52.412;13.554;2023-08-01T05:31:00;5.32;;;3.60;;
81508;SDS011;70930;52.412;13.554;2023-08-01T05:33:45;5.10;;;3.40;;
81508;SDS011;70930;52.412;13.554;2023-08-01T05:36:30;5.05;;;3.38;;
81508;SDS011;70930;52.412;13.554;2023-08-01T05:39:16;6.38;;;3.20;;
81508;SDS011;70930;52.412;13.554;2023-08-01T05:42:02;3.72;;;3.00;;
81508;SDS011;70930;52.412;13.554;2023-08-01T05:44:48;5.50;;;3.92;;
81508;SDS011;70930;52.412;13.554;2023-08-01T05:47:33;5.75;;;3.17;;
81508;SDS011;70930;52.412;13.554;2023-08-01T05:50:19;4.82;;;2.90;;
81508;SDS011;70930;52.412;13.554;2023-08-01T05:53:05;5.10;;;3.45;;
81508;SDS011;70930;52.412;13.554;2023-08-01T05:55:50;4.25;;;3.17;;
81508;SDS011;70930;52.412;13.554;2023-08-01T05:58:36;5.82;;;3.28;;
81508;SDS011;70930;52.412;13.554;2023-08-01T06:01:21;5.07;;;3.47;;
81508;SDS011;70930;52.412;13.554;2023-08-01T06:04:07;4.63;;;3.25;;
81508;SDS011;70930;52.412;13.554;2023-08-01T06:06:52;5.20;;;3.25;;
81508;SDS011;70930;52.412;13.554;2023-08-01T06:09:38;4.43;;;3.20;;
81508;SDS011;70930;52.412;13.554;2023-08-01T06:12:24;7.00;;;2.75;;
81508;SDS011;70930;52.412;13.554;2023-08-01T06:15:09;3.33;;;2.33;;
81508;SDS011;70930;52.412;13.554;2023-08-01T06:17:55;6.50;;;3.75;;
81508;SDS011;70930;52.412;13.554;2023-08-01T06:20:40;4.53;;;3.20;;
81508;SDS011;70930;52.412;13.554;2023-08-01T06:23:26;3.83;;;2.65;;
81508;SDS011;70930;52.412;13.554;2023-08-01T06:26:11;6.15;;;3.10;;
81508;SDS011;70930;52.412;13.554;2023-08-01T06:28:56;6.30;;;3.28;;
81508;SDS011;70930;52.412;13.554;2023-08-01T06:31:42;4.82;;;2.92;;
81508;SDS011;70930;52.412;13.554;2023-08-01T06:34:27;5.35;;;2.83;;
81508;SDS011;70930;52.412;13.554;2023-08-01T06:37:13;4.40;;;2.78;;
81508;SDS011;70930;52.412;13.554;2023-08-01T06:39:58;4.60;;;2.70;;
81508;SDS011;70930;52.412;13.554;2023-08-01T06:42:44;4.78;;;3.03;;
81508;SDS011;70930;52.412;13.554;2023-08-01T06:45:30;5.63;;;2.95;;
81508;SDS011;70930;52.412;13.554;2023-08-01T06:48:15;6.38;;;3.33;;
81508;SDS011;70930;52.412;13.554;2023-08-01T06:51:00;4.97;;;2.88;;
81508;SDS011;70930;52.412;13.554;2023-08-01T06:53:47;6.03;;;3.33;;
81508;SDS011;70930;52.412;13.554;2023-08-01T06:56:33;4.55;;;2.92;;
81508;SDS011;70930;52.412;13.554;2023-08-01T06:59:18;4.15;;;3.03;;
81508;SDS011;70930;52.412;13.554;2023-08-01T07:02:04;5.93;;;3.20;;
81508;SDS011;70930;52.412;13.554;2023-08-01T07:04:50;4.20;;;2.70;;
81508;SDS011;70930;52.412;13.554;2023-08-01T07:07:36;4.93;;;2.92;;
81508;SDS011;70930;52.412;13.554;2023-08-01T07:10:22;6.07;;;3.22;;
81508;SDS011;70930;52.412;13.554;2023-08-01T07:13:07;4.05;;;3.00;;
81508;SDS011;70930;52.412;13.554;2023-08-01T07:15:52;5.32;;;3.30;;
81508;SDS011;70930;52.412;13.554;2023-08-01T07:18:38;4.30;;;2.75;;
81508;SDS011;70930;52.412;13.554;2023-08-01T07:21:23;3.85;;;3.00;;
81508;SDS011;70930;52.412;13.554;2023-08-01T07:24:08;4.18;;;3.40;;
81508;SDS011;70930;52.412;13.554;2023-08-01T07:26:54;4.60;;;3.22;;
81508;SDS011;70930;52.412;13.554;2023-08-01T07:29:39;6.25;;;3.03;;
81508;SDS011;70930;52.412;13.554;2023-08-01T07:32:25;5.03;;;3.25;;
81508;SDS011;70930;52.412;13.554;2023-08-01T07:35:10;4.97;;;3.30;;
81508;SDS011;70930;52.412;13.554;2023-08-01T07:37:56;4.70;;;2.88;;
81508;SDS011;70930;52.412;13.554;2023-08-01T07:40:41;4.43;;;2.58;;
81508;SDS011;70930;52.412;13.554;2023-08-01T07:43:27;4.60;;;2.13;;
81508;SDS011;70930;52.412;13.554;2023-08-01T07:46:13;3.42;;;2.60;;
81508;SDS011;70930;52.412;13.554;2023-08-01T07:48:58;6.00;;;2.63;;
81508;SDS011;70930;52.412;13.554;2023-08-01T07:51:46;4.75;;;2.90;;
81508;SDS011;70930;52.412;13.554;2023-08-01T07:54:32;4.85;;;2.50;;
81508;SDS011;70930;52.412;13.554;2023-08-01T07:57:17;3.15;;;2.13;;
81508;SDS011;70930;52.412;13.554;2023-08-01T08:00:03;3.03;;;2.22;;
81508;SDS011;70930;52.412;13.554;2023-08-01T08:02:48;3.08;;;2.33;;
81508;SDS011;70930;52.412;13.554;2023-08-01T08:05:34;3.20;;;2.50;;
81508;SDS011;70930;52.412;13.554;2023-08-01T08:08:23;2.83;;;2.40;;
81508;SDS011;70930;52.412;13.554;2023-08-01T08:11:08;3.17;;;2.30;;
81508;SDS011;70930;52.412;13.554;2023-08-01T08:13:54;2.70;;;2.17;;
81508;SDS011;70930;52.412;13.554;2023-08-01T08:16:39;3.33;;;2.17;;
81508;SDS011;70930;52.412;13.554;2023-08-01T08:19:24;2.45;;;2.10;;
81508;SDS011;70930;52.412;13.554;2023-08-01T08:22:10;3.25;;;2.33;;
81508;SDS011;70930;52.412;13.554;2023-08-01T08:24:55;4.25;;;2.42;;
81508;SDS011;70930;52.412;13.554;2023-08-01T08:27:41;3.40;;;2.15;;
81508;SDS011;70930;52.412;13.554;2023-08-01T08:30:26;3.42;;;2.10;;
81508;SDS011;70930;52.412;13.554;2023-08-01T08:33:20;3.67;;;2.20;;
81508;SDS011;70930;52.412;13.554;2023-08-01T08:36:06;3.97;;;2.08;;
81508;SDS011;70930;52.412;13.554;2023-08-01T08:38:51;2.58;;;1.98;;
81508;SDS011;70930;52.412;13.554;2023-08-01T08:41:45;3.20;;;2.35;;
81508;SDS011;70930;52.412;13.554;2023-08-01T08:44:35;2.90;;;1.85;;
81508;SDS011;70930;52.412;13.554;2023-08-01T08:50:13;3.53;;;1.98;;
81508;SDS011;70930;52.412;13.554;2023-08-01T08:52:59;2.35;;;1.50;;
81508;SDS011;70930;52.412;13.554;2023-08-01T08:55:45;2.88;;;1.55;;
81508;SDS011;70930;52.412;13.554;2023-08-01T08:58:31;3.42;;;1.40;;
81508;SDS011;70930;52.412;13.554;2023-08-01T09:01:17;2.10;;;1.55;;
81508;SDS011;70930;52.412;13.554;2023-08-01T09:04:03;2.00;;;1.75;;
81508;SDS011;70930;52.412;13.554;2023-08-01T09:06:49;3.25;;;1.75;;
81508;SDS011;70930;52.412;13.554;2023-08-01T09:09:40;1.75;;;1.38;;
81508;SDS011;70930;52.412;13.554;2023-08-01T09:12:25;2.15;;;1.50;;
81508;SDS011;70930;52.412;13.554;2023-08-01T09:15:11;1.42;;;1.17;;
81508;SDS011;70930;52.412;13.554;2023-08-01T09:17:58;1.70;;;1.20;;
81508;SDS011;70930;52.412;13.554;2023-08-01T09:20:45;2.50;;;1.40;;
81508;SDS011;70930;52.412;13.554;2023-08-01T09:23:32;4.13;;;1.20;;
81508;SDS011;70930;52.412;13.554;2023-08-01T09:26:18;1.48;;;1.20;;
81508;SDS011;70930;52.412;13.554;2023-08-01T09:29:04;1.48;;;1.23;;
81508;SDS011;70930;52.412;13.554;2023-08-01T09:31:50;2.33;;;0.98;;
81508;SDS011;70930;52.412;13.554;2023-08-01T09:34:36;2.78;;;1.40;;
81508;SDS011;70930;52.412;13.554;2023-08-01T09:37:21;1.23;;;0.80;;
81508;SDS011;70930;52.412;13.554;2023-08-01T09:40:07;1.00;;;0.90;;
81508;SDS011;70930;52.412;13.554;2023-08-01T09:42:53;1.80;;;0.80;;
81508;SDS011;70930;52.412;13.554;2023-08-01T09:45:54;0.65;;;0.60;;
81508;SDS011;70930;52.412;13.554;2023-08-01T09:48:39;1.50;;;0.60;;
81508;SDS011;70930;52.412;13.554;2023-08-01T09:51:25;2.08;;;0.90;;
81508;SDS011;70930;52.412;13.554;2023-08-01T09:54:10;1.02;;;0.77;;
81508;SDS011;70930;52.412;13.554;2023-08-01T09:56:56;1.95;;;0.70;;
81508;SDS011;70930;52.412;13.554;2023-08-01T09:59:41;1.30;;;0.90;;
81508;SDS011;70930;52.412;13.554;2023-08-01T10:02:27;1.10;;;0.90;;
81508;SDS011;70930;52.412;13.554;2023-08-01T10:05:16;3.92;;;1.05;;
81508;SDS011;70930;52.412;13.554;2023-08-01T10:08:04;1.77;;;0.98;;
81508;SDS011;70930;52.412;13.554;2023-08-01T10:10:49;2.05;;;0.80;;
81508;SDS011;70930;52.412;13.554;2023-08-01T10:13:36;2.03;;;1.13;;
81508;SDS011;70930;52.412;13.554;2023-08-01T10:16:22;1.30;;;0.70;;
81508;SDS011;70930;52.412;13.554;2023-08-01T10:19:09;1.80;;;0.70;;
81508;SDS011;70930;52.412;13.554;2023-08-01T10:21:55;1.88;;;0.70;;
81508;SDS011;70930;52.412;13.554;2023-08-01T10:24:41;0.80;;;0.60;;
81508;SDS011;70930;52.412;13.554;2023-08-01T10:27:27;1.30;;;0.90;;
81508;SDS011;70930;52.412;13.554;2023-08-01T10:30:13;1.17;;;0.90;;
81508;SDS011;70930;52.412;13.554;2023-08-01T10:32:59;0.63;;;0.52;;
81508;SDS011;70930;52.412;13.554;2023-08-01T10:35:45;1.55;;;0.60;;
81508;SDS011;70930;52.412;13.554;2023-08-01T10:38:30;0.95;;;0.80;;
81508;SDS011;70930;52.412;13.554;2023-08-01T10:44:22;0.82;;;0.60;;
81508;SDS011;70930;52.412;13.554;2023-08-01T10:47:08;1.20;;;0.85;;
81508;SDS011;70930;52.412;13.554;2023-08-01T10:49:53;1.83;;;0.60;;
81508;SDS011;70930;52.412;13.554;2023-08-01T10:52:39;0.85;;;0.50;;
81508;SDS011;70930;52.412;13.554;2023-08-01T10:55:24;2.03;;;0.60;;
81508;SDS011;70930;52.412;13.554;2023-08-01T10:58:09;0.80;;;0.65;;
81508;SDS011;70930;52.412;13.554;2023-08-01T11:00:58;0.77;;;0.50;;
81508;SDS011;70930;52.412;13.554;2023-08-01T11:03:44;0.55;;;0.40;;
81508;SDS011;70930;52.412;13.554;2023-08-01T11:06:30;1.33;;;0.60;;
81508;SDS011;70930;52.412;13.554;2023-08-01T11:09:20;1.15;;;0.68;;
81508;SDS011;70930;52.412;13.554;2023-08-01T11:12:06;0.85;;;0.50;;
81508;SDS011;70930;52.412;13.554;2023-08-01T11:14:52;0.77;;;0.45;;
81508;SDS011;70930;52.412;13.554;2023-08-01T11:17:52;1.23;;;0.80;;
81508;SDS011;70930;52.412;13.554;2023-08-01T11:20:38;1.50;;;0.80;;
81508;SDS011;70930;52.412;13.554;2023-08-01T11:23:29;1.83;;;0.98;;
81508;SDS011;70930;52.412;13.554;2023-08-01T11:26:14;1.30;;;0.90;;
81508;SDS011;70930;52.412;13.554;2023-08-01T11:29:03;1.55;;;0.80;;
81508;SDS011;70930;52.412;13.554;2023-08-01T11:31:52;1.23;;;0.82;;
81508;SDS011;70930;52.412;13.554;2023-08-01T11:34:42;2.05;;;1.20;;
81508;SDS011;70930;52.412;13.554;2023-08-01T11:37:29;5.15;;;1.67;;
81508;SDS011;70930;52.412;13.554;2023-08-01T11:40:15;1.48;;;1.00;;
81508;SDS011;70930;52.412;13.554;2023-08-01T11:43:02;1.30;;;1.02;;
81508;SDS011;70930;52.412;13.554;2023-08-01T11:45:52;1.10;;;0.82;;
81508;SDS011;70930;52.412;13.554;2023-08-01T11:48:39;1.35;;;0.75;;
81508;SDS011;70930;52.412;13.554;2023-08-01T11:51:30;1.13;;;1.00;;
81508;SDS011;70930;52.412;13.554;2023-08-01T11:54:24;2.60;;;1.27;;
81508;SDS011;70930;52.412;13.554;2023-08-01T11:57:09;2.38;;;1.50;;
81508;SDS011;70930;52.412;13.554;2023-08-01T11:59:55;2.30;;;1.40;;
81508;SDS011;70930;52.412;13.554;2023-08-01T12:02:41;2.65;;;1.55;;
81508;SDS011;70930;52.412;13.554;2023-08-01T12:05:26;5.07;;;1.67;;
81508;SDS011;70930;52.412;13.554;2023-08-01T12:08:12;4.03;;;2.50;;
81508;SDS011;70930;52.412;13.554;2023-08-01T12:13:44;4.32;;;2.38;;
81508;SDS011;70930;52.412;13.554;2023-08-01T12:16:29;6.03;;;2.75;;
81508;SDS011;70930;52.412;13.554;2023-08-01T12:19:18;4.32;;;2.13;;
81508;SDS011;70930;52.412;13.554;2023-08-01T12:22:05;3.90;;;2.30;;
81508;SDS011;70930;52.412;13.554;2023-08-01T12:24:50;4.13;;;2.13;;
81508;SDS011;70930;52.412;13.554;2023-08-01T12:27:36;3.65;;;2.17;;
81508;SDS011;70930;52.412;13.554;2023-08-01T12:30:21;3.45;;;1.92;;
81508;SDS011;70930;52.412;13.554;2023-08-01T12:33:10;4.65;;;1.95;;
81508;SDS011;70930;52.412;13.554;2023-08-01T12:35:55;3.60;;;2.15;;
81508;SDS011;70930;52.412;13.554;2023-08-01T12:38:40;3.85;;;2.10;;
81508;SDS011;70930;52.412;13.554;2023-08-01T12:41:26;5.32;;;2.13;;
81508;SDS011;70930;52.412;13.554;2023-08-01T12:44:11;3.10;;;2.38;;
81508;SDS011;70930;52.412;13.554;2023-08-01T12:47:00;2.85;;;2.10;;
81508;SDS011;70930;52.412;13.554;2023-08-01T12:49:46;3.90;;;2.47;;
81508;SDS011;70930;52.412;13.554;2023-08-01T12:52:35;5.32;;;2.60;;
81508;SDS011;70930;52.412;13.554;2023-08-01T12:55:20;4.60;;;2.45;;
81508;SDS011;70930;52.412;13.554;2023-08-01T12:58:06;4.05;;;2.15;;
81508;SDS011;70930;52.412;13.554;2023-08-01T13:00:51;3.25;;;2.25;;
81508;SDS011;70930;52.412;13.554;2023-08-01T13:03:37;3.65;;;1.92;;
81508;SDS011;70930;52.412;13.554;2023-08-01T13:06:22;3.53;;;2.42;;
81508;SDS011;70930;52.412;13.554;2023-08-01T13:09:07;3.28;;;1.92;;
81508;SDS011;70930;52.412;13.554;2023-08-01T13:11:53;3.03;;;2.45;;
81508;SDS011;70930;52.412;13.554;2023-08-01T13:14:38;3.95;;;2.40;;
81508;SDS011;70930;52.412;13.554;2023-08-01T13:17:24;5.53;;;2.60;;
81508;SDS011;70930;52.412;13.554;2023-08-01T13:20:09;3.95;;;2.65;;
81508;SDS011;70930;52.412;13.554;2023-08-01T13:22:54;4.30;;;2.50;;
81508;SDS011;70930;52.412;13.554;2023-08-01T13:25:40;5.50;;;2.35;;
81508;SDS011;70930;52.412;13.554;2023-08-01T13:28:25;3.97;;;2.40;;
81508;SDS011;70930;52.412;13.554;2023-08-01T13:31:11;3.90;;;2.25;;
81508;SDS011;70930;52.412;13.554;2023-08-01T13:33:56;4.85;;;2.70;;
81508;SDS011;70930;52.412;13.554;2023-08-01T13:36:41;7.05;;;2.40;;
81508;SDS011;70930;52.412;13.554;2023-08-01T13:39:27;6.40;;;2.70;;
81508;SDS011;70930;52.412;13.554;2023-08-01T13:42:12;4.85;;;2.60;;
81508;SDS011;70930;52.412;13.554;2023-08-01T13:44:58;4.95;;;2.50;;
81508;SDS011;70930;52.412;13.554;2023-08-01T13:47:44;5.00;;;2.58;;
81508;SDS011;70930;52.412;13.554;2023-08-01T13:50:30;4.70;;;2.47;;
81508;SDS011;70930;52.412;13.554;2023-08-01T13:53:16;4.82;;;2.80;;
81508;SDS011;70930;52.412;13.554;2023-08-01T13:56:02;5.10;;;2.75;;
81508;SDS011;70930;52.412;13.554;2023-08-01T13:58:47;4.93;;;2.72;;
81508;SDS011;70930;52.412;13.554;2023-08-01T14:01:33;4.93;;;2.95;;
81508;SDS011;70930;52.412;13.554;2023-08-01T14:04:18;5.47;;;2.70;;
81508;SDS011;70930;52.412;13.554;2023-08-01T14:07:04;5.28;;;2.65;;
81508;SDS011;70930;52.412;13.554;2023-08-01T14:09:50;4.97;;;2.78;;
81508;SDS011;70930;52.412;13.554;2023-08-01T14:12:36;5.88;;;2.55;;
81508;SDS011;70930;52.412;13.554;2023-08-01T14:15:21;3.97;;;2.50;;
81508;SDS011;70930;52.412;13.554;2023-08-01T14:18:07;4.32;;;2.35;;
81508;SDS011;70930;52.412;13.554;2023-08-01T14:20:52;3.60;;;2.67;;
81508;SDS011;70930;52.412;13.554;2023-08-01T14:23:38;5.00;;;2.55;;
81508;SDS011;70930;52.412;13.554;2023-08-01T14:26:24;5.60;;;2.30;;
81508;SDS011;70930;52.412;13.554;2023-08-01T14:29:10;5.85;;;3.10;;
81508;SDS011;70930;52.412;13.554;2023-08-01T14:31:55;5.90;;;3.08;;
81508;SDS011;70930;52.412;13.554;2023-08-01T14:34:40;4.18;;;2.83;;
81508;SDS011;70930;52.412;13.554;2023-08-01T14:37:26;3.63;;;2.38;;
81508;SDS011;70930;52.412;13.554;2023-08-01T14:40:11;4.03;;;2.45;;
81508;SDS011;70930;52.412;13.554;2023-08-01T14:42:57;2.83;;;1.92;;
81508;SDS011;70930;52.412;13.554;2023-08-01T14:45:42;4.80;;;2.83;;
81508;SDS011;70930;52.412;13.554;2023-08-01T14:48:28;3.40;;;2.17;;
81508;SDS011;70930;52.412;13.554;2023-08-01T14:51:13;3.35;;;2.45;;
81508;SDS011;70930;52.412;13.554;2023-08-01T14:53:58;3.28;;;2.38;;
81508;SDS011;70930;52.412;13.554;2023-08-01T14:56:44;3.22;;;2.13;;
81508;SDS011;70930;52.412;13.554;2023-08-01T14:59:29;4.15;;;2.33;;
81508;SDS011;70930;52.412;13.554;2023-08-01T15:05:02;3.45;;;2.10;;
81508;SDS011;70930;52.412;13.554;2023-08-01T15:07:47;3.60;;;2.17;;
81508;SDS011;70930;52.412;13.554;2023-08-01T15:10:32;3.05;;;1.90;;
81508;SDS011;70930;52.412;13.554;2023-08-01T15:13:18;3.10;;;2.10;;
81508;SDS011;70930;52.412;13.554;2023-08-01T15:16:03;2.78;;;1.77;;
81508;SDS011;70930;52.412;13.554;2023-08-01T15:18:48;2.75;;;2.20;;
81508;SDS011;70930;52.412;13.554;2023-08-01T15:21:34;3.50;;;2.00;;
81508;SDS011;70930;52.412;13.554;2023-08-01T15:24:19;3.38;;;2.03;;
81508;SDS011;70930;52.412;13.554;2023-08-01T15:27:05;5.90;;;2.58;;
81508;SDS011;70930;52.412;13.554;2023-08-01T15:29:50;3.40;;;2.28;;
81508;SDS011;70930;52.412;13.554;2023-08-01T15:32:35;3.95;;;2.35;;
81508;SDS011;70930;52.412;13.554;2023-08-01T15:35:25;2.88;;;2.28;;
81508;SDS011;70930;52.412;13.554;2023-08-01T15:38:13;3.88;;;1.88;;
81508;SDS011;70930;52.412;13.554;2023-08-01T15:40:59;3.20;;;1.40;;
81508;SDS011;70930;52.412;13.554;2023-08-01T15:43:47;3.90;;;1.70;;
81508;SDS011;70930;52.412;13.554;2023-08-01T15:46:33;2.78;;;1.63;;
81508;SDS011;70930;52.412;13.554;2023-08-01T15:49:19;2.53;;;1.52;;
81508;SDS011;70930;52.412;13.554;2023-08-01T15:52:04;5.05;;;2.45;;
81508;SDS011;70930;52.412;13.554;2023-08-01T15:54:50;5.20;;;2.50;;
81508;SDS011;70930;52.412;13.554;2023-08-01T15:57:35;3.78;;;1.83;;
81508;SDS011;70930;52.412;13.554;2023-08-01T16:00:21;3.40;;;1.95;;
81508;SDS011;70930;52.412;13.554;2023-08-01T16:03:06;3.13;;;1.98;;
81508;SDS011;70930;52.412;13.554;2023-08-01T16:05:52;5.75;;;2.00;;
81508;SDS011;70930;52.412;13.554;2023-08-01T16:11:24;3.70;;;1.80;;
81508;SDS011;70930;52.412;13.554;2023-08-01T16:14:09;4.05;;;2.28;;
81508;SDS011;70930;52.412;13.554;2023-08-01T16:16:54;4.22;;;2.13;;
81508;SDS011;70930;52.412;13.554;2023-08-01T16:19:40;4.18;;;2.50;;
81508;SDS011;70930;52.412;13.554;2023-08-01T16:22:25;3.80;;;1.88;;
81508;SDS011;70930;52.412;13.554;2023-08-01T16:25:11;5.68;;;2.00;;
81508;SDS011;70930;52.412;13.554;2023-08-01T16:27:56;2.80;;;1.67;;
81508;SDS011;70930;52.412;13.554;2023-08-01T16:30:41;3.97;;;1.95;;
81508;SDS011;70930;52.412;13.554;2023-08-01T16:36:14;2.00;;;1.33;;
81508;SDS011;70930;52.412;13.554;2023-08-01T16:38:59;2.53;;;1.50;;
81508;SDS011;70930;52.412;13.554;2023-08-01T16:41:45;2.65;;;1.38;;
81508;SDS011;70930;52.412;13.554;2023-08-01T16:44:31;2.15;;;1.50;;
81508;SDS011;70930;52.412;13.554;2023-08-01T16:47:17;2.70;;;1.60;;
81508;SDS011;70930;52.412;13.554;2023-08-01T16:50:02;5.07;;;1.83;;
81508;SDS011;70930;52.412;13.554;2023-08-01T16:52:48;2.13;;;1.67;;
81508;SDS011;70930;52.412;13.554;2023-08-01T16:55:33;2.70;;;1.70;;